sensor_id;sensor_type;location;lat;lon;timestamp;temperature;humidity
10980;DHT22;5543;51.734;8.744;2023-04-29T00:00:24;12.90;99.90
10980;DHT22;5543;51.734;8.744;2023-04-29T00:02:53;13.00;99.90
10980;DHT22;5543;51.734;8.744;2023-04-29T00:05:22;13.00;99.90
10980;DHT22;5543;51.734;8.744;2023-04-29T00:07:50;13.00;99.90
10980;DHT22;5543;51.734;8.744;2023-04-29T00:10:18;12.90;99.90
10980;DHT22;5543;51.734;8.744;2023-04-29T00:12:47;12.90;99.90
10980;DHT22;5543;51.734;8.744;2023-04-29T00:15:18;12.90;99.90
10980;DHT22;5543;51.734;8.744;2023-04-29T00:17:47;12.90;99.90
10980;DHT22;5543;51.734;8.744;2023-04-29T00:20:15;12.80;99.90
10980;DHT22;5543;51.734;8.744;2023-04-29T00:22:43;12.80;99.90
10980;DHT22;5543;51.734;8.744;2023-04-29T00:25:11;12.90;99.90
10980;DHT22;5543;51.734;8.744;2023-04-29T00:27:40;12.80;99.90
10980;DHT22;5543;51.734;8.744;2023-04-29T00:30:08;12.80;99.90
10980;DHT22;5543;51.734;8.744;2023-04-29T00:32:44;12.80;99.90
10980;DHT22;5543;51.734;8.744;2023-04-29T00:35:12;12.70;99.90
10980;DHT22;5543;51.734;8.744;2023-04-29T00:37:40;12.70;99.90
10980;DHT22;5543;51.734;8.744;2023-04-29T00:40:09;12.70;99.90
10980;DHT22;5543;51.734;8.744;2023-04-29T00:42:41;12.70;99.90
10980;DHT22;5543;51.734;8.744;2023-04-29T00:45:10;12.70;99.90
10980;DHT22;5543;51.734;8.744;2023-04-29T00:47:38;12.70;99.90
10980;DHT22;5543;51.734;8.744;2023-04-29T00:50:08;12.70;99.90
10980;DHT22;5543;51.734;8.744;2023-04-29T00:52:37;12.70;99.90
10980;DHT22;5543;51.734;8.744;2023-04-29T00:55:07;12.70;99.90
10980;DHT22;5543;51.734;8.744;2023-04-29T00:57:36;12.60;99.90
10980;DHT22;5543;51.734;8.744;2023-04-29T01:00:06;12.60;99.90
10980;DHT22;5543;51.734;8.744;2023-04-29T01:02:36;12.60;99.90
10980;DHT22;5543;51.734;8.744;2023-04-29T01:05:05;12.60;99.90
10980;DHT22;5543;51.734;8.744;2023-04-29T01:07:42;12.60;99.90
10980;DHT22;5543;51.734;8.744;2023-04-29T01:10:14;12.50;99.90
10980;DHT22;5543;51.734;8.744;2023-04-29T01:12:53;12.50;99.90
10980;DHT22;5543;51.734;8.744;2023-04-29T01:15:31;12.50;99.90
10980;DHT22;5543;51.734;8.744;2023-04-29T01:18:06;12.50;99.90
10980;DHT22;5543;51.734;8.744;2023-04-29T01:20:36;12.50;99.90
10980;DHT22;5543;51.734;8.744;2023-04-29T01:23:06;12.50;99.90
10980;DHT22;5543;51.734;8.744;2023-04-29T01:25:35;12.40;99.90
10980;DHT22;5543;51.734;8.744;2023-04-29T01:28:11;12.40;99.90
10980;DHT22;5543;51.734;8.744;2023-04-29T01:30:46;12.40;99.90
10980;DHT22;5543;51.734;8.744;2023-04-29T01:33:27;12.40;99.90
10980;DHT22;5543;51.734;8.744;2023-04-29T01:36:04;12.30;99.90
10980;DHT22;5543;51.734;8.744;2023-04-29T01:38:38;12.30;99.90
10980;DHT22;5543;51.734;8.744;2023-04-29T01:41:14;12.20;99.90
10980;DHT22;5543;51.734;8.744;2023-04-29T01:43:46;12.10;99.90
10980;DHT22;5543;51.734;8.744;2023-04-29T01:46:17;12.10;99.90
10980;DHT22;5543;51.734;8.744;2023-04-29T01:48:45;12.10;99.90
10980;DHT22;5543;51.734;8.744;2023-04-29T01:51:13;12.00;99.90
10980;DHT22;5543;51.734;8.744;2023-04-29T01:53:41;11.90;99.90
10980;DHT22;5543;51.734;8.744;2023-04-29T01:56:11;11.90;99.90
10980;DHT22;5543;51.734;8.744;2023-04-29T01:58:39;11.80;99.90
10980;DHT22;5543;51.734;8.744;2023-04-29T02:01:07;11.80;99.90
10980;DHT22;5543;51.734;8.744;2023-04-29T02:03:36;11.80;99.90
10980;DHT22;5543;51.734;8.744;2023-04-29T02:06:05;11.70;99.90
10980;DHT22;5543;51.734;8.744;2023-04-29T02:08:33;11.70;99.90
10980;DHT22;5543;51.734;8.744;2023-04-29T02:11:02;11.70;99.90
10980;DHT22;5543;51.734;8.744;2023-04-29T02:13:31;11.70;99.90
10980;DHT22;5543;51.734;8.744;2023-04-29T02:16:06;11.70;99.90
10980;DHT22;5543;51.734;8.744;2023-04-29T02:18:35;11.70;99.90
10980;DHT22;5543;51.734;8.744;2023-04-29T02:21:03;11.60;99.90
10980;DHT22;5543;51.734;8.744;2023-04-29T02:23:31;11.60;99.90
10980;DHT22;5543;51.734;8.744;2023-04-29T02:26:00;11.60;99.90
10980;DHT22;5543;51.734;8.744;2023-04-29T02:28:31;11.60;99.90
10980;DHT22;5543;51.734;8.744;2023-04-29T02:30:59;11.60;99.90
10980;DHT22;5543;51.734;8.744;2023-04-29T02:33:27;11.50;99.90
10980;DHT22;5543;51.734;8.744;2023-04-29T02:35:55;11.50;99.90
10980;DHT22;5543;51.734;8.744;2023-04-29T02:38:23;11.40;99.90
10980;DHT22;5543;51.734;8.744;2023-04-29T02:40:51;11.50;99.90
10980;DHT22;5543;51.734;8.744;2023-04-29T02:43:19;11.20;99.90
10980;DHT22;5543;51.734;8.744;2023-04-29T02:45:49;11.30;99.90
10980;DHT22;5543;51.734;8.744;2023-04-29T02:48:17;11.50;99.90
10980;DHT22;5543;51.734;8.744;2023-04-29T02:50:45;11.30;99.90
10980;DHT22;5543;51.734;8.744;2023-04-29T02:53:13;11.20;99.90
10980;DHT22;5543;51.734;8.744;2023-04-29T02:55:42;11.20;99.90
10980;DHT22;5543;51.734;8.744;2023-04-29T02:58:10;11.20;99.90
10980;DHT22;5543;51.734;8.744;2023-04-29T03:00:40;11.30;99.90
10980;DHT22;5543;51.734;8.744;2023-04-29T03:03:09;11.10;99.90
10980;DHT22;5543;51.734;8.744;2023-04-29T03:05:37;11.10;99.90
10980;DHT22;5543;51.734;8.744;2023-04-29T03:08:06;11.10;99.90
10980;DHT22;5543;51.734;8.744;2023-04-29T03:10:36;11.10;99.90
10980;DHT22;5543;51.734;8.744;2023-04-29T03:13:07;11.00;99.90
10980;DHT22;5543;51.734;8.744;2023-04-29T03:15:35;11.00;99.90
10980;DHT22;5543;51.734;8.744;2023-04-29T03:18:05;11.00;99.90
10980;DHT22;5543;51.734;8.744;2023-04-29T03:20:34;11.00;99.90
10980;DHT22;5543;51.734;8.744;2023-04-29T03:23:03;11.00;99.90
10980;DHT22;5543;51.734;8.744;2023-04-29T03:25:31;11.00;99.90
10980;DHT22;5543;51.734;8.744;2023-04-29T03:27:59;11.00;99.90
10980;DHT22;5543;51.734;8.744;2023-04-29T03:30:27;11.00;99.90
10980;DHT22;5543;51.734;8.744;2023-04-29T03:32:55;11.10;99.90
10980;DHT22;5543;51.734;8.744;2023-04-29T03:35:23;10.90;99.90
10980;DHT22;5543;51.734;8.744;2023-04-29T03:37:53;10.90;99.90
10980;DHT22;5543;51.734;8.744;2023-04-29T03:40:21;10.80;99.90
10980;DHT22;5543;51.734;8.744;2023-04-29T03:42:49;10.80;99.90
10980;DHT22;5543;51.734;8.744;2023-04-29T03:45:17;10.80;99.90
10980;DHT22;5543;51.734;8.744;2023-04-29T03:47:46;11.00;99.90
10980;DHT22;5543;51.734;8.744;2023-04-29T03:50:14;10.80;99.90
10980;DHT22;5543;51.734;8.744;2023-04-29T03:52:42;10.80;99.90
10980;DHT22;5543;51.734;8.744;2023-04-29T03:55:12;10.70;99.90
10980;DHT22;5543;51.734;8.744;2023-04-29T03:57:40;10.70;99.90
10980;DHT22;5543;51.734;8.744;2023-04-29T04:00:09;10.70;99.90
10980;DHT22;5543;51.734;8.744;2023-04-29T04:02:37;10.60;99.90
10980;DHT22;5543;51.734;8.744;2023-04-29T04:05:06;10.60;99.90
10980;DHT22;5543;51.734;8.744;2023-04-29T04:07:34;10.60;99.90
10980;DHT22;5543;51.734;8.744;2023-04-29T04:10:02;10.50;99.90
10980;DHT22;5543;51.734;8.744;2023-04-29T04:12:32;10.50;99.90
10980;DHT22;5543;51.734;8.744;2023-04-29T04:15:00;10.50;99.90
10980;DHT22;5543;51.734;8.744;2023-04-29T04:17:29;10.50;99.90
10980;DHT22;5543;51.734;8.744;2023-04-29T04:19:58;10.50;99.90
10980;DHT22;5543;51.734;8.744;2023-04-29T04:22:26;10.50;99.90
10980;DHT22;5543;51.734;8.744;2023-04-29T04:24:54;10.50;99.90
10980;DHT22;5543;51.734;8.744;2023-04-29T04:27:22;10.50;99.90
10980;DHT22;5543;51.734;8.744;2023-04-29T04:29:54;10.50;99.90
10980;DHT22;5543;51.734;8.744;2023-04-29T04:32:22;10.50;99.90
10980;DHT22;5543;51.734;8.744;2023-04-29T04:34:50;10.50;99.90
10980;DHT22;5543;51.734;8.744;2023-04-29T04:37:18;10.50;99.90
10980;DHT22;5543;51.734;8.744;2023-04-29T04:39:47;10.50;99.90
10980;DHT22;5543;51.734;8.744;2023-04-29T04:42:15;10.50;99.90
10980;DHT22;5543;51.734;8.744;2023-04-29T04:44:43;10.50;99.90
10980;DHT22;5543;51.734;8.744;2023-04-29T04:47:12;10.50;99.90
10980;DHT22;5543;51.734;8.744;2023-04-29T04:49:41;10.50;99.90
10980;DHT22;5543;51.734;8.744;2023-04-29T04:52:09;10.50;99.90
10980;DHT22;5543;51.734;8.744;2023-04-29T04:54:38;10.30;99.90
10980;DHT22;5543;51.734;8.744;2023-04-29T04:57:06;10.40;99.90
10980;DHT22;5543;51.734;8.744;2023-04-29T04:59:34;10.50;99.90
10980;DHT22;5543;51.734;8.744;2023-04-29T05:02:02;10.40;99.90
10980;DHT22;5543;51.734;8.744;2023-04-29T05:04:32;10.40;99.90
10980;DHT22;5543;51.734;8.744;2023-04-29T05:07:00;10.40;99.90
10980;DHT22;5543;51.734;8.744;2023-04-29T05:09:28;10.40;99.90
10980;DHT22;5543;51.734;8.744;2023-04-29T05:11:56;10.40;99.90
10980;DHT22;5543;51.734;8.744;2023-04-29T05:14:25;10.40;99.90
10980;DHT22;5543;51.734;8.744;2023-04-29T05:16:57;10.30;99.90
10980;DHT22;5543;51.734;8.744;2023-04-29T05:19:25;10.30;99.90
10980;DHT22;5543;51.734;8.744;2023-04-29T05:21:55;10.40;99.90
10980;DHT22;5543;51.734;8.744;2023-04-29T05:24:23;10.40;99.90
10980;DHT22;5543;51.734;8.744;2023-04-29T05:26:51;10.40;99.90
10980;DHT22;5543;51.734;8.744;2023-04-29T05:29:19;10.30;99.90
10980;DHT22;5543;51.734;8.744;2023-04-29T05:31:48;10.40;99.90
10980;DHT22;5543;51.734;8.744;2023-04-29T05:34:16;10.40;99.90
10980;DHT22;5543;51.734;8.744;2023-04-29T05:36:44;10.30;99.90
10980;DHT22;5543;51.734;8.744;2023-04-29T05:39:13;10.30;99.90
10980;DHT22;5543;51.734;8.744;2023-04-29T05:41:42;10.30;99.90
10980;DHT22;5543;51.734;8.744;2023-04-29T05:44:10;10.30;99.90
10980;DHT22;5543;51.734;8.744;2023-04-29T05:46:38;10.30;99.90
10980;DHT22;5543;51.734;8.744;2023-04-29T05:49:07;10.40;99.90
10980;DHT22;5543;51.734;8.744;2023-04-29T05:51:36;10.40;99.90
10980;DHT22;5543;51.734;8.744;2023-04-29T05:54:04;10.40;99.90
10980;DHT22;5543;51.734;8.744;2023-04-29T05:56:33;10.30;99.90
10980;DHT22;5543;51.734;8.744;2023-04-29T05:59:01;10.40;99.90
10980;DHT22;5543;51.734;8.744;2023-04-29T06:01:29;10.40;99.90
10980;DHT22;5543;51.734;8.744;2023-04-29T06:03:58;10.40;99.90
10980;DHT22;5543;51.734;8.744;2023-04-29T06:06:27;10.40;99.90
10980;DHT22;5543;51.734;8.744;2023-04-29T06:08:55;10.40;99.90
10980;DHT22;5543;51.734;8.744;2023-04-29T06:11:23;10.50;99.90
10980;DHT22;5543;51.734;8.744;2023-04-29T06:13:53;10.50;99.90
10980;DHT22;5543;51.734;8.744;2023-04-29T06:16:21;10.50;99.90
10980;DHT22;5543;51.734;8.744;2023-04-29T06:18:49;10.50;99.90
10980;DHT22;5543;51.734;8.744;2023-04-29T06:21:17;10.50;99.90
10980;DHT22;5543;51.734;8.744;2023-04-29T06:23:45;10.60;99.90
10980;DHT22;5543;51.734;8.744;2023-04-29T06:26:14;10.60;99.90
10980;DHT22;5543;51.734;8.744;2023-04-29T06:28:42;10.70;99.90
10980;DHT22;5543;51.734;8.744;2023-04-29T06:31:11;10.70;99.90
10980;DHT22;5543;51.734;8.744;2023-04-29T06:33:39;10.70;99.90
10980;DHT22;5543;51.734;8.744;2023-04-29T06:36:07;10.70;99.90
10980;DHT22;5543;51.734;8.744;2023-04-29T06:38:36;10.90;99.90
10980;DHT22;5543;51.734;8.744;2023-04-29T06:41:04;10.80;99.90
10980;DHT22;5543;51.734;8.744;2023-04-29T06:43:32;10.70;99.90
10980;DHT22;5543;51.734;8.744;2023-04-29T06:46:00;10.70;99.90
10980;DHT22;5543;51.734;8.744;2023-04-29T06:48:30;10.70;99.90
10980;DHT22;5543;51.734;8.744;2023-04-29T06:50:58;10.70;99.90
10980;DHT22;5543;51.734;8.744;2023-04-29T06:53:26;10.70;99.90
10980;DHT22;5543;51.734;8.744;2023-04-29T06:55:54;11.00;99.90
10980;DHT22;5543;51.734;8.744;2023-04-29T06:58:22;10.80;99.90
10980;DHT22;5543;51.734;8.744;2023-04-29T07:00:50;10.80;99.90
10980;DHT22;5543;51.734;8.744;2023-04-29T07:03:19;10.90;99.90
10980;DHT22;5543;51.734;8.744;2023-04-29T07:05:49;10.90;99.90
10980;DHT22;5543;51.734;8.744;2023-04-29T07:08:17;11.00;99.90
10980;DHT22;5543;51.734;8.744;2023-04-29T07:10:53;11.10;99.90
10980;DHT22;5543;51.734;8.744;2023-04-29T07:13:21;11.10;99.90
10980;DHT22;5543;51.734;8.744;2023-04-29T07:15:50;11.20;99.90
10980;DHT22;5543;51.734;8.744;2023-04-29T07:18:18;11.30;99.90
10980;DHT22;5543;51.734;8.744;2023-04-29T07:20:47;11.30;99.90
10980;DHT22;5543;51.734;8.744;2023-04-29T07:23:17;11.30;99.90
10980;DHT22;5543;51.734;8.744;2023-04-29T07:25:46;11.40;99.90
10980;DHT22;5543;51.734;8.744;2023-04-29T07:28:14;11.40;99.90
10980;DHT22;5543;51.734;8.744;2023-04-29T07:30:43;11.50;99.90
10980;DHT22;5543;51.734;8.744;2023-04-29T07:33:11;11.50;99.90
10980;DHT22;5543;51.734;8.744;2023-04-29T07:35:39;11.50;99.90
10980;DHT22;5543;51.734;8.744;2023-04-29T07:38:11;11.50;99.90
10980;DHT22;5543;51.734;8.744;2023-04-29T07:40:41;11.60;99.90
10980;DHT22;5543;51.734;8.744;2023-04-29T07:43:10;11.50;99.90
10980;DHT22;5543;51.734;8.744;2023-04-29T07:45:38;11.60;99.90
10980;DHT22;5543;51.734;8.744;2023-04-29T07:48:07;11.70;99.90
10980;DHT22;5543;51.734;8.744;2023-04-29T07:50:36;11.70;99.90
10980;DHT22;5543;51.734;8.744;2023-04-29T07:53:04;11.70;99.90
10980;DHT22;5543;51.734;8.744;2023-04-29T07:55:34;11.80;99.90
10980;DHT22;5543;51.734;8.744;2023-04-29T07:58:03;11.80;99.90
10980;DHT22;5543;51.734;8.744;2023-04-29T08:00:32;11.90;99.90
10980;DHT22;5543;51.734;8.744;2023-04-29T08:03:00;12.00;99.90
10980;DHT22;5543;51.734;8.744;2023-04-29T08:05:29;11.90;99.90
10980;DHT22;5543;51.734;8.744;2023-04-29T08:07:57;11.90;99.90
10980;DHT22;5543;51.734;8.744;2023-04-29T08:10:25;11.80;99.90
10980;DHT22;5543;51.734;8.744;2023-04-29T08:12:55;11.90;99.90
10980;DHT22;5543;51.734;8.744;2023-04-29T08:15:23;11.80;99.90
10980;DHT22;5543;51.734;8.744;2023-04-29T08:17:51;11.90;99.90
10980;DHT22;5543;51.734;8.744;2023-04-29T08:20:20;12.00;99.90
10980;DHT22;5543;51.734;8.744;2023-04-29T08:22:48;12.10;99.90
10980;DHT22;5543;51.734;8.744;2023-04-29T08:25:16;12.20;99.90
10980;DHT22;5543;51.734;8.744;2023-04-29T08:27:44;12.20;99.90
10980;DHT22;5543;51.734;8.744;2023-04-29T08:30:14;12.50;99.90
10980;DHT22;5543;51.734;8.744;2023-04-29T08:32:42;12.80;99.90
10980;DHT22;5543;51.734;8.744;2023-04-29T08:35:10;12.90;99.90
10980;DHT22;5543;51.734;8.744;2023-04-29T08:37:38;12.90;99.90
10980;DHT22;5543;51.734;8.744;2023-04-29T08:40:08;12.80;99.90
10980;DHT22;5543;51.734;8.744;2023-04-29T08:42:36;12.70;99.90
10980;DHT22;5543;51.734;8.744;2023-04-29T08:45:05;12.60;99.90
10980;DHT22;5543;51.734;8.744;2023-04-29T08:47:35;12.50;99.90
10980;DHT22;5543;51.734;8.744;2023-04-29T08:50:05;12.60;99.90
10980;DHT22;5543;51.734;8.744;2023-04-29T08:52:33;12.80;99.90
10980;DHT22;5543;51.734;8.744;2023-04-29T08:55:02;13.20;99.90
10980;DHT22;5543;51.734;8.744;2023-04-29T08:57:35;13.50;99.90
10980;DHT22;5543;51.734;8.744;2023-04-29T09:00:06;13.90;99.90
10980;DHT22;5543;51.734;8.744;2023-04-29T09:02:42;14.00;99.90
10980;DHT22;5543;51.734;8.744;2023-04-29T09:05:12;14.10;99.90
10980;DHT22;5543;51.734;8.744;2023-04-29T09:07:40;14.10;99.90
10980;DHT22;5543;51.734;8.744;2023-04-29T09:10:09;14.00;99.90
10980;DHT22;5543;51.734;8.744;2023-04-29T09:12:38;14.00;99.90
10980;DHT22;5543;51.734;8.744;2023-04-29T09:15:07;14.20;99.90
10980;DHT22;5543;51.734;8.744;2023-04-29T09:17:43;14.30;99.90
10980;DHT22;5543;51.734;8.744;2023-04-29T09:20:30;14.50;99.90
10980;DHT22;5543;51.734;8.744;2023-04-29T09:22:59;14.50;99.90
10980;DHT22;5543;51.734;8.744;2023-04-29T09:25:29;14.70;99.90
10980;DHT22;5543;51.734;8.744;2023-04-29T09:27:58;14.90;99.90
10980;DHT22;5543;51.734;8.744;2023-04-29T09:30:45;15.00;99.90
10980;DHT22;5543;51.734;8.744;2023-04-29T09:33:15;15.00;99.90
10980;DHT22;5543;51.734;8.744;2023-04-29T09:35:43;15.00;99.90
10980;DHT22;5543;51.734;8.744;2023-04-29T09:38:13;14.90;99.90
10980;DHT22;5543;51.734;8.744;2023-04-29T09:40:42;14.80;99.90
10980;DHT22;5543;51.734;8.744;2023-04-29T09:43:24;14.70;99.90
10980;DHT22;5543;51.734;8.744;2023-04-29T09:45:53;14.40;99.90
10980;DHT22;5543;51.734;8.744;2023-04-29T09:48:30;14.30;99.90
10980;DHT22;5543;51.734;8.744;2023-04-29T09:51:00;14.10;99.90
10980;DHT22;5543;51.734;8.744;2023-04-29T09:53:30;14.20;99.90
10980;DHT22;5543;51.734;8.744;2023-04-29T09:55:59;14.40;99.90
10980;DHT22;5543;51.734;8.744;2023-04-29T09:58:29;14.80;99.90
10980;DHT22;5543;51.734;8.744;2023-04-29T10:01:01;15.10;99.90
10980;DHT22;5543;51.734;8.744;2023-04-29T10:03:33;15.40;99.90
10980;DHT22;5543;51.734;8.744;2023-04-29T10:06:02;15.30;99.90
10980;DHT22;5543;51.734;8.744;2023-04-29T10:08:32;15.40;99.90
10980;DHT22;5543;51.734;8.744;2023-04-29T10:11:02;15.50;99.90
10980;DHT22;5543;51.734;8.744;2023-04-29T10:13:34;15.60;99.90
10980;DHT22;5543;51.734;8.744;2023-04-29T10:16:11;15.60;99.90
10980;DHT22;5543;51.734;8.744;2023-04-29T10:18:48;15.80;99.90
10980;DHT22;5543;51.734;8.744;2023-04-29T10:21:20;16.00;99.90
10980;DHT22;5543;51.734;8.744;2023-04-29T10:23:53;16.20;99.90
10980;DHT22;5543;51.734;8.744;2023-04-29T10:26:22;16.20;99.90
10980;DHT22;5543;51.734;8.744;2023-04-29T10:28:54;16.30;99.90
10980;DHT22;5543;51.734;8.744;2023-04-29T10:31:25;16.40;99.90
10980;DHT22;5543;51.734;8.744;2023-04-29T10:33:56;16.40;99.90
10980;DHT22;5543;51.734;8.744;2023-04-29T10:36:25;16.40;99.90
10980;DHT22;5543;51.734;8.744;2023-04-29T10:38:58;16.50;99.90
10980;DHT22;5543;51.734;8.744;2023-04-29T10:41:30;16.70;99.80
10980;DHT22;5543;51.734;8.744;2023-04-29T10:44:00;16.60;99.90
10980;DHT22;5543;51.734;8.744;2023-04-29T10:46:30;16.50;99.90
10980;DHT22;5543;51.734;8.744;2023-04-29T10:49:01;16.50;99.90
10980;DHT22;5543;51.734;8.744;2023-04-29T10:51:31;16.70;99.90
10980;DHT22;5543;51.734;8.744;2023-04-29T10:54:01;16.90;99.90
10980;DHT22;5543;51.734;8.744;2023-04-29T10:56:40;17.10;99.80
10980;DHT22;5543;51.734;8.744;2023-04-29T10:59:10;17.50;98.70
10980;DHT22;5543;51.734;8.744;2023-04-29T11:01:43;17.70;98.40
10980;DHT22;5543;51.734;8.744;2023-04-29T11:04:14;17.70;98.20
10980;DHT22;5543;51.734;8.744;2023-04-29T11:06:47;17.50;97.80
10980;DHT22;5543;51.734;8.744;2023-04-29T11:09:19;17.10;98.20
10980;DHT22;5543;51.734;8.744;2023-04-29T11:11:58;16.80;98.50
10980;DHT22;5543;51.734;8.744;2023-04-29T11:14:31;16.30;98.70
10980;DHT22;5543;51.734;8.744;2023-04-29T11:17:01;16.10;99.90
10980;DHT22;5543;51.734;8.744;2023-04-29T11:19:32;16.00;99.70
10980;DHT22;5543;51.734;8.744;2023-04-29T11:22:09;15.90;99.80
10980;DHT22;5543;51.734;8.744;2023-04-29T11:24:52;15.80;99.90
10980;DHT22;5543;51.734;8.744;2023-04-29T11:27:22;15.70;99.90
10980;DHT22;5543;51.734;8.744;2023-04-29T11:29:53;15.70;99.90
10980;DHT22;5543;51.734;8.744;2023-04-29T11:32:29;15.50;99.10
10980;DHT22;5543;51.734;8.744;2023-04-29T11:35:08;15.50;99.90
10980;DHT22;5543;51.734;8.744;2023-04-29T11:37:39;15.40;99.90
10980;DHT22;5543;51.734;8.744;2023-04-29T11:40:09;15.30;99.90
10980;DHT22;5543;51.734;8.744;2023-04-29T11:42:40;15.20;99.90
10980;DHT22;5543;51.734;8.744;2023-04-29T11:45:09;15.00;99.90
10980;DHT22;5543;51.734;8.744;2023-04-29T11:47:41;14.90;99.90
10980;DHT22;5543;51.734;8.744;2023-04-29T11:50:13;14.60;99.90
10980;DHT22;5543;51.734;8.744;2023-04-29T11:52:45;14.40;99.90
10980;DHT22;5543;51.734;8.744;2023-04-29T11:55:13;14.20;99.90
10980;DHT22;5543;51.734;8.744;2023-04-29T11:57:42;14.10;99.90
10980;DHT22;5543;51.734;8.744;2023-04-29T12:00:10;14.20;99.90
10980;DHT22;5543;51.734;8.744;2023-04-29T12:02:43;14.30;99.90
10980;DHT22;5543;51.734;8.744;2023-04-29T12:05:13;14.50;99.90
10980;DHT22;5543;51.734;8.744;2023-04-29T12:07:43;14.70;99.90
10980;DHT22;5543;51.734;8.744;2023-04-29T12:10:11;15.00;99.90
10980;DHT22;5543;51.734;8.744;2023-04-29T12:12:40;15.20;99.90
10980;DHT22;5543;51.734;8.744;2023-04-29T12:15:10;15.30;99.90
10980;DHT22;5543;51.734;8.744;2023-04-29T12:17:38;15.40;99.90
10980;DHT22;5543;51.734;8.744;2023-04-29T12:20:08;15.40;99.90
10980;DHT22;5543;51.734;8.744;2023-04-29T12:22:38;15.40;99.90
10980;DHT22;5543;51.734;8.744;2023-04-29T12:25:07;15.30;99.90
10980;DHT22;5543;51.734;8.744;2023-04-29T12:27:38;15.30;99.90
10980;DHT22;5543;51.734;8.744;2023-04-29T12:30:07;15.40;99.00
10980;DHT22;5543;51.734;8.744;2023-04-29T12:32:36;15.40;99.30
10980;DHT22;5543;51.734;8.744;2023-04-29T12:35:05;15.60;99.90
10980;DHT22;5543;51.734;8.744;2023-04-29T12:37:47;15.80;99.90
10980;DHT22;5543;51.734;8.744;2023-04-29T12:40:15;16.00;99.90
10980;DHT22;5543;51.734;8.744;2023-04-29T12:42:46;16.10;99.80
10980;DHT22;5543;51.734;8.744;2023-04-29T12:45:28;16.30;99.50
10980;DHT22;5543;51.734;8.744;2023-04-29T12:47:56;16.50;98.70
10980;DHT22;5543;51.734;8.744;2023-04-29T12:50:31;16.70;98.60
10980;DHT22;5543;51.734;8.744;2023-04-29T12:53:02;16.80;97.70
10980;DHT22;5543;51.734;8.744;2023-04-29T12:55:31;16.90;97.70
10980;DHT22;5543;51.734;8.744;2023-04-29T12:58:01;16.90;97.10
10980;DHT22;5543;51.734;8.744;2023-04-29T13:00:29;16.80;96.90
10980;DHT22;5543;51.734;8.744;2023-04-29T13:02:58;16.70;97.20
10980;DHT22;5543;51.734;8.744;2023-04-29T13:05:26;16.40;96.80
10980;DHT22;5543;51.734;8.744;2023-04-29T13:07:54;16.20;97.70
10980;DHT22;5543;51.734;8.744;2023-04-29T13:10:24;16.10;98.10
10980;DHT22;5543;51.734;8.744;2023-04-29T13:12:54;16.00;98.40
10980;DHT22;5543;51.734;8.744;2023-04-29T13:15:22;15.90;98.10
10980;DHT22;5543;51.734;8.744;2023-04-29T13:17:50;15.80;97.40
10980;DHT22;5543;51.734;8.744;2023-04-29T13:20:19;15.70;98.00
10980;DHT22;5543;51.734;8.744;2023-04-29T13:22:47;15.70;98.40
10980;DHT22;5543;51.734;8.744;2023-04-29T13:25:16;15.80;98.20
10980;DHT22;5543;51.734;8.744;2023-04-29T13:27:45;15.70;97.50
10980;DHT22;5543;51.734;8.744;2023-04-29T13:30:14;16.00;98.20
10980;DHT22;5543;51.734;8.744;2023-04-29T13:32:42;16.20;97.40
10980;DHT22;5543;51.734;8.744;2023-04-29T13:35:21;16.50;98.10
10980;DHT22;5543;51.734;8.744;2023-04-29T13:37:49;16.80;97.10
10980;DHT22;5543;51.734;8.744;2023-04-29T13:40:18;16.90;96.70
10980;DHT22;5543;51.734;8.744;2023-04-29T13:42:48;16.90;96.40
10980;DHT22;5543;51.734;8.744;2023-04-29T13:45:29;17.00;96.80
10980;DHT22;5543;51.734;8.744;2023-04-29T13:47:58;17.20;96.50
10980;DHT22;5543;51.734;8.744;2023-04-29T13:50:29;17.10;95.40
10980;DHT22;5543;51.734;8.744;2023-04-29T13:53:00;16.80;95.70
10980;DHT22;5543;51.734;8.744;2023-04-29T13:55:31;16.50;95.80
10980;DHT22;5543;51.734;8.744;2023-04-29T13:58:05;16.00;96.10
10980;DHT22;5543;51.734;8.744;2023-04-29T14:00:36;15.80;96.70
10980;DHT22;5543;51.734;8.744;2023-04-29T14:03:25;15.40;97.70
10980;DHT22;5543;51.734;8.744;2023-04-29T14:05:53;15.10;97.80
10980;DHT22;5543;51.734;8.744;2023-04-29T14:08:22;14.90;98.40
10980;DHT22;5543;51.734;8.744;2023-04-29T14:10:50;14.80;99.10
10980;DHT22;5543;51.734;8.744;2023-04-29T14:13:19;14.60;99.80
10980;DHT22;5543;51.734;8.744;2023-04-29T14:15:48;14.60;99.80
10980;DHT22;5543;51.734;8.744;2023-04-29T14:18:16;14.70;99.80
10980;DHT22;5543;51.734;8.744;2023-04-29T14:20:44;14.80;99.90
10980;DHT22;5543;51.734;8.744;2023-04-29T14:23:12;14.90;98.90
10980;DHT22;5543;51.734;8.744;2023-04-29T14:25:40;15.00;98.70
10980;DHT22;5543;51.734;8.744;2023-04-29T14:28:11;15.00;98.30
10980;DHT22;5543;51.734;8.744;2023-04-29T14:30:41;15.00;98.70
10980;DHT22;5543;51.734;8.744;2023-04-29T14:33:12;15.00;98.50
10980;DHT22;5543;51.734;8.744;2023-04-29T14:35:40;15.00;98.60
10980;DHT22;5543;51.734;8.744;2023-04-29T14:38:08;15.00;98.10
10980;DHT22;5543;51.734;8.744;2023-04-29T14:40:36;15.00;98.20
10980;DHT22;5543;51.734;8.744;2023-04-29T14:43:05;15.10;98.30
10980;DHT22;5543;51.734;8.744;2023-04-29T14:45:34;15.10;97.60
10980;DHT22;5543;51.734;8.744;2023-04-29T14:48:04;15.20;97.90
10980;DHT22;5543;51.734;8.744;2023-04-29T14:50:33;15.20;98.20
10980;DHT22;5543;51.734;8.744;2023-04-29T14:53:04;15.20;98.20
10980;DHT22;5543;51.734;8.744;2023-04-29T14:55:33;15.20;98.70
10980;DHT22;5543;51.734;8.744;2023-04-29T14:58:02;15.20;98.70
10980;DHT22;5543;51.734;8.744;2023-04-29T15:00:30;15.20;98.50
10980;DHT22;5543;51.734;8.744;2023-04-29T15:02:58;15.10;97.80
10980;DHT22;5543;51.734;8.744;2023-04-29T15:05:31;15.10;98.10
10980;DHT22;5543;51.734;8.744;2023-04-29T15:07:59;15.00;98.40
10980;DHT22;5543;51.734;8.744;2023-04-29T15:10:28;15.00;98.40
10980;DHT22;5543;51.734;8.744;2023-04-29T15:12:56;15.00;98.70
10980;DHT22;5543;51.734;8.744;2023-04-29T15:15:25;14.90;97.90
10980;DHT22;5543;51.734;8.744;2023-04-29T15:17:53;14.90;97.80
10980;DHT22;5543;51.734;8.744;2023-04-29T15:20:21;14.90;97.60
10980;DHT22;5543;51.734;8.744;2023-04-29T15:22:51;14.80;97.40
10980;DHT22;5543;51.734;8.744;2023-04-29T15:25:19;14.70;97.90
10980;DHT22;5543;51.734;8.744;2023-04-29T15:27:51;14.70;98.20
10980;DHT22;5543;51.734;8.744;2023-04-29T15:30:19;14.70;98.20
10980;DHT22;5543;51.734;8.744;2023-04-29T15:32:47;14.70;98.10
10980;DHT22;5543;51.734;8.744;2023-04-29T15:35:15;14.60;98.30
10980;DHT22;5543;51.734;8.744;2023-04-29T15:37:43;14.70;98.40
10980;DHT22;5543;51.734;8.744;2023-04-29T15:40:13;14.70;98.50
10980;DHT22;5543;51.734;8.744;2023-04-29T15:42:42;14.70;98.50
10980;DHT22;5543;51.734;8.744;2023-04-29T15:45:11;14.70;98.60
10980;DHT22;5543;51.734;8.744;2023-04-29T15:47:39;14.70;98.70
10980;DHT22;5543;51.734;8.744;2023-04-29T15:50:08;14.70;98.70
10980;DHT22;5543;51.734;8.744;2023-04-29T15:52:36;14.80;98.90
10980;DHT22;5543;51.734;8.744;2023-04-29T15:55:05;14.80;99.30
10980;DHT22;5543;51.734;8.744;2023-04-29T15:57:35;14.90;98.60
10980;DHT22;5543;51.734;8.744;2023-04-29T16:00:08;14.90;98.30